Time;durP1;ratioP1;P1;durP2;ratioP2;P2;SDS_P1;SDS_P2;PMS_P1;PMS_P2;Temp;Humidity;BMP_temperature;BMP_pressure;BME280_temperature;BME280_humidity;BME280_pressure;Samples;Min_cycle;Max_cycle;Signal;HPM_P1;HPM_P2
2022/12/22 03:26:22;;;;;;;0.00;0.00;;;8.90;99.90;;;;;;5073362;28;20055;-80
2022/12/22 03:28:47;;;;;;;0.15;0.15;;;8.90;99.90;;;;;;5056498;28;20037;-81
2022/12/22 03:31:13;;;;;;;0.00;0.00;;;8.90;99.90;;;;;;5022966;28;20053;-81
2022/12/22 03:33:39;;;;;;;0.00;0.00;;;8.90;99.90;;;;;;5073033;28;20044;-81
2022/12/22 03:36:06;;;;;;;0.47;0.20;;;8.90;99.90;;;;;;5072358;28;20095;-81
2022/12/22 03:38:32;;;;;;;0.00;0.00;;;8.90;99.90;;;;;;5056335;28;20056;-81
2022/12/22 03:40:58;;;;;;;1.02;0.05;;;8.90;99.90;;;;;;5056256;28;20096;-81
2022/12/22 03:46:29;;;;;;;0.00;0.00;;;8.90;99.90;;;;;;5072972;28;20106;-81
2022/12/22 03:49:09;;;;;;;0.00;0.00;;;8.90;99.90;;;;;;5056889;28;20048;-81
2022/12/22 03:51:44;;;;;;;0.63;0.10;;;8.90;99.90;;;;;;5055747;28;20040;-81
2022/12/22 03:54:12;;;;;;;0.00;0.00;;;8.90;99.90;;;;;;5056362;28;20374;-81
2022/12/22 03:56:38;;;;;;;0.00;0.00;;;8.90;99.90;;;;;;5055847;28;20041;-81
2022/12/22 03:59:05;;;;;;;0.30;0.10;;;8.90;99.90;;;;;;5072729;28;20040;-81
2022/12/22 04:01:33;;;;;;;0.28;0.28;;;8.90;99.90;;;;;;5072179;28;20048;-81
2022/12/22 04:03:58;;;;;;;0.73;0.52;;;8.90;99.90;;;;;;5055994;28;20460;-81
2022/12/22 04:06:24;;;;;;;0.38;0.25;;;8.90;99.90;;;;;;5039441;28;20110;-82
2022/12/22 04:08:50;;;;;;;0.10;0.03;;;8.90;99.90;;;;;;5072612;28;20071;-81
2022/12/22 04:14:02;;;;;;;0.70;0.20;;;8.90;99.90;;;;;;5073164;28;20045;-81
2022/12/22 04:16:31;;;;;;;0.05;0.05;;;8.90;99.90;;;;;;5055741;28;20040;-81
2022/12/22 04:18:57;;;;;;;0.10;0.10;;;8.90;99.90;;;;;;5055509;28;20040;-81
2022/12/22 04:21:22;;;;;;;0.85;0.13;;;8.90;99.90;;;;;;5072511;28;20036;-81
2022/12/22 04:23:51;;;;;;;0.25;0.10;;;8.90;99.90;;;;;;5055734;28;20048;-81
2022/12/22 04:26:19;;;;;;;0.10;0.10;;;8.90;99.90;;;;;;5072141;28;20048;-81
2022/12/22 04:28:45;;;;;;;0.10;0.00;;;8.90;99.90;;;;;;5073159;28;20055;-81
2022/12/22 04:31:11;;;;;;;2.40;0.20;;;8.90;99.90;;;;;;5071905;28;20052;-81
2022/12/22 04:33:36;;;;;;;0.63;0.00;;;9.00;99.90;;;;;;5072338;28;20044;-81
2022/12/22 04:36:02;;;;;;;0.55;0.30;;;8.90;99.90;;;;;;5071920;28;20053;-81
2022/12/22 04:38:28;;;;;;;0.00;0.00;;;9.00;99.90;;;;;;5072667;28;20056;-81
2022/12/22 04:40:54;;;;;;;0.30;0.30;;;8.90;99.90;;;;;;5072276;28;20047;-81
2022/12/22 04:43:19;;;;;;;0.60;0.03;;;8.90;99.90;;;;;;5038956;28;20045;-81
2022/12/22 04:45:45;;;;;;;0.32;0.32;;;9.00;99.90;;;;;;5072280;28;20044;-81
2022/12/22 04:48:11;;;;;;;0.10;0.00;;;8.90;99.90;;;;;;5039399;28;20376;-81
2022/12/22 04:50:37;;;;;;;0.00;0.00;;;8.90;99.90;;;;;;5055598;28;20044;-81
2022/12/22 04:53:02;;;;;;;0.13;0.05;;;9.00;99.90;;;;;;5056007;28;20044;-81
2022/12/22 04:55:28;;;;;;;0.10;0.10;;;8.90;99.90;;;;;;5071856;28;20041;-81
2022/12/22 04:57:54;;;;;;;0.32;0.32;;;9.00;99.90;;;;;;5055517;28;20052;-81
2022/12/22 05:00:19;;;;;;;0.32;0.32;;;8.90;99.90;;;;;;5072513;28;20366;-81
2022/12/22 05:02:45;;;;;;;0.20;0.03;;;8.90;99.90;;;;;;5074781;28;20056;-81
2022/12/22 05:05:11;;;;;;;0.05;0.00;;;9.00;99.90;;;;;;5075923;28;20072;-81
2022/12/22 05:07:36;;;;;;;0.28;0.10;;;9.00;99.90;;;;;;5059239;28;20047;-81
2022/12/22 05:10:04;;;;;;;0.30;0.30;;;8.90;99.90;;;;;;5042278;28;20449;-81
2022/12/22 05:15:14;;;;;;;0.00;0.00;;;9.00;99.90;;;;;;5075834;28;20091;-81
2022/12/22 05:17:39;;;;;;;0.68;0.35;;;9.00;99.90;;;;;;5058946;28;20102;-81
2022/12/22 05:20:06;;;;;;;0.13;0.10;;;9.00;99.90;;;;;;5058792;28;20044;-81
2022/12/22 05:22:32;;;;;;;0.00;0.00;;;9.00;99.90;;;;;;5058756;28;20040;-81
2022/12/22 05:24:58;;;;;;;0.00;0.00;;;8.90;99.90;;;;;;5059054;28;20049;-81
2022/12/22 05:27:24;;;;;;;0.70;0.57;;;9.00;99.90;;;;;;5075527;28;20049;-81
2022/12/22 05:29:49;;;;;;;0.20;0.20;;;9.00;99.90;;;;;;5042123;28;20123;-81
2022/12/22 05:32:15;;;;;;;0.17;0.05;;;9.00;99.90;;;;;;5058401;28;20345;-81
2022/12/22 05:34:41;;;;;;;1.77;0.43;;;9.00;99.90;;;;;;5042406;28;20059;-81
2022/12/22 05:37:06;;;;;;;0.73;0.05;;;9.00;99.90;;;;;;5058419;28;20056;-81
2022/12/22 05:39:32;;;;;;;0.35;0.00;;;9.00;99.90;;;;;;5042078;28;20048;-81
2022/12/22 05:41:57;;;;;;;0.08;0.08;;;9.00;99.90;;;;;;5058642;28;20054;-81
2022/12/22 05:44:23;;;;;;;0.10;0.10;;;9.00;99.90;;;;;;5075417;28;20521;-81
2022/12/22 05:46:51;;;;;;;0.00;0.00;;;9.00;99.90;;;;;;5075221;28;20058;-82
2022/12/22 05:49:17;;;;;;;0.00;0.00;;;9.00;99.90;;;;;;5075359;28;20041;-82
2022/12/22 05:51:43;;;;;;;0.10;0.10;;;8.90;99.90;;;;;;5058402;28;20469;-81
2022/12/22 05:54:09;;;;;;;0.80;0.25;;;8.90;99.90;;;;;;5058392;28;20043;-80
2022/12/22 05:56:35;;;;;;;0.00;0.00;;;8.90;99.90;;;;;;5058167;28;20097;-79
2022/12/22 05:59:00;;;;;;;0.00;0.00;;;8.90;99.90;;;;;;5058002;28;20048;-79
2022/12/22 06:01:26;;;;;;;0.65;0.38;;;8.90;99.90;;;;;;5074433;28;20047;-80
2022/12/22 06:03:52;;;;;;;1.33;0.20;;;8.90;99.90;;;;;;5076364;28;20094;-79
2022/12/22 06:06:17;;;;;;;0.20;0.20;;;8.90;99.90;;;;;;5058583;28;20472;-80
2022/12/22 06:08:43;;;;;;;0.20;0.00;;;8.90;99.90;;;;;;5074775;28;20061;-80
2022/12/22 06:11:09;;;;;;;0.10;0.10;;;8.90;99.90;;;;;;5085110;28;20464;-80
2022/12/22 06:13:34;;;;;;;1.35;0.10;;;8.90;99.90;;;;;;5072100;28;20033;-81
2022/12/22 06:16:00;;;;;;;0.00;0.00;;;8.80;99.90;;;;;;5074442;28;20033;-81
2022/12/22 06:18:27;;;;;;;1.15;0.32;;;8.90;99.90;;;;;;5074616;28;20464;-81
2022/12/22 06:20:53;;;;;;;0.25;0.22;;;8.90;99.90;;;;;;5042065;28;20129;-81
2022/12/22 06:23:20;;;;;;;0.15;0.15;;;8.90;99.90;;;;;;5074654;28;20040;-81
2022/12/22 06:26:00;;;;;;;1.48;0.50;;;8.90;99.90;;;;;;5074426;28;20396;-81
2022/12/22 06:28:26;;;;;;;0.05;0.00;;;8.90;99.90;;;;;;5058004;28;20055;-81
2022/12/22 06:30:53;;;;;;;0.00;0.00;;;8.90;99.90;;;;;;5057378;28;20048;-83
2022/12/22 06:33:19;;;;;;;0.22;0.10;;;8.90;99.90;;;;;;5057973;28;20434;-82
2022/12/22 06:35:45;;;;;;;0.30;0.10;;;8.90;99.90;;;;;;5073884;28;20140;-83
2022/12/22 06:38:11;;;;;;;0.00;0.00;;;9.00;99.90;;;;;;5074356;28;20131;-82
2022/12/22 06:40:39;;;;;;;0.00;0.00;;;9.00;99.90;;;;;;5057455;28;20135;-84
2022/12/22 06:43:07;;;;;;;0.00;0.00;;;9.00;99.90;;;;;;5040533;28;20040;-84
2022/12/22 06:45:37;;;;;;;0.00;0.00;;;8.90;99.90;;;;;;5074032;28;20040;-84
2022/12/22 06:48:03;;;;;;;0.03;0.03;;;9.00;99.90;;;;;;5074286;28;20043;-84
2022/12/22 06:50:29;;;;;;;0.08;0.05;;;8.90;99.90;;;;;;5074497;28;20063;-84
2022/12/22 06:52:55;;;;;;;0.10;0.10;;;8.90;99.90;;;;;;5073910;28;20044;-83
2022/12/22 06:55:21;;;;;;;0.45;0.10;;;9.00;99.90;;;;;;5074128;28;20040;-83
2022/12/22 06:57:47;;;;;;;1.20;0.22;;;9.00;99.90;;;;;;5073840;28;20037;-83
2022/12/22 07:00:13;;;;;;;0.08;0.00;;;9.00;99.90;;;;;;5057286;28;20040;-83
2022/12/22 07:02:41;;;;;;;0.10;0.10;;;9.00;99.90;;;;;;5056796;28;20047;-83
2022/12/22 07:05:07;;;;;;;0.13;0.13;;;9.00;99.90;;;;;;5040525;28;20513;-83
2022/12/22 07:07:33;;;;;;;0.60;0.60;;;9.00;99.90;;;;;;5057057;28;20080;-83
2022/12/22 07:09:58;;;;;;;0.22;0.22;;;8.90;99.90;;;;;;5073524;28;20054;-82
2022/12/22 07:12:24;;;;;;;0.13;0.10;;;8.90;99.90;;;;;;5023912;28;20047;-82
2022/12/22 07:14:50;;;;;;;0.98;0.35;;;8.90;99.90;;;;;;5073731;28;20486;-83
2022/12/22 07:17:16;;;;;;;1.67;0.47;;;8.90;99.90;;;;;;5039881;28;20460;-83
2022/12/22 07:19:41;;;;;;;0.00;0.00;;;8.90;99.90;;;;;;5039888;28;20139;-83
2022/12/22 07:22:07;;;;;;;2.60;0.77;;;8.90;99.90;;;;;;5073326;28;20055;-82
2022/12/22 07:24:33;;;;;;;0.10;0.10;;;8.90;99.90;;;;;;5056505;28;20048;-82
2022/12/22 07:26:58;;;;;;;1.05;0.00;;;8.80;99.90;;;;;;5040064;28;20044;-82
2022/12/22 07:29:24;;;;;;;0.10;0.10;;;8.80;99.90;;;;;;5039876;28;20541;-82
2022/12/22 07:31:52;;;;;;;0.63;0.25;;;8.70;99.90;;;;;;5056022;28;20131;-83
2022/12/22 07:34:18;;;;;;;0.28;0.28;;;8.60;99.90;;;;;;5072739;28;20477;-83
2022/12/22 07:36:44;;;;;;;0.17;0.10;;;8.60;99.90;;;;;;5055858;28;20071;-82
2022/12/22 07:39:11;;;;;;;0.00;0.00;;;8.50;99.90;;;;;;5056324;28;20084;-82
2022/12/22 07:44:21;;;;;;;1.25;0.52;;;8.30;99.90;;;;;;5072938;28;20496;-83
2022/12/22 07:46:47;;;;;;;0.30;0.10;;;8.30;99.90;;;;;;5073346;28;20048;-81
2022/12/22 07:51:58;;;;;;;0.60;0.60;;;8.10;99.90;;;;;;5072761;28;20084;-82
2022/12/22 07:54:24;;;;;;;0.00;0.00;;;8.00;99.90;;;;;;5073291;28;20401;-82
2022/12/22 07:56:50;;;;;;;1.00;0.32;;;8.00;99.90;;;;;;5039277;28;20127;-82
2022/12/22 07:59:16;;;;;;;0.52;0.30;;;7.90;99.90;;;;;;5055951;28;20135;-82
2022/12/22 08:01:42;;;;;;;0.05;0.05;;;7.80;99.90;;;;;;5038981;28;20048;-82
2022/12/22 08:04:09;;;;;;;0.00;0.00;;;7.70;99.90;;;;;;5072670;28;20045;-82
2022/12/22 08:06:35;;;;;;;0.25;0.25;;;7.70;99.90;;;;;;5055920;28;20047;-82
2022/12/22 08:09:02;;;;;;;0.15;0.15;;;7.60;99.90;;;;;;5056488;28;20369;-83
2022/12/22 08:11:30;;;;;;;0.00;0.00;;;7.60;99.90;;;;;;5056107;28;20044;-83
2022/12/22 08:13:56;;;;;;;0.10;0.10;;;7.50;99.90;;;;;;5039243;28;20136;-83
2022/12/22 08:16:22;;;;;;;0.00;0.00;;;7.40;99.90;;;;;;5039204;28;20144;-83
2022/12/22 08:18:48;;;;;;;0.95;0.70;;;7.50;99.90;;;;;;5039411;28;20045;-83
2022/12/22 08:21:14;;;;;;;0.20;0.20;;;7.40;99.90;;;;;;5055554;28;20162;-83
2022/12/22 08:23:40;;;;;;;0.30;0.30;;;7.40;99.90;;;;;;5072193;28;20049;-83
2022/12/22 08:26:22;;;;;;;7.53;0.95;;;7.40;99.90;;;;;;5055988;28;20047;-83
2022/12/22 08:28:54;;;;;;;0.47;0.38;;;7.50;99.90;;;;;;5071974;28;20511;-83
2022/12/22 08:31:23;;;;;;;2.20;0.35;;;7.50;99.90;;;;;;5072008;28;20098;-83
2022/12/22 08:33:49;;;;;;;1.15;0.88;;;7.60;99.90;;;;;;5055763;28;20049;-83
2022/12/22 08:36:15;;;;;;;0.10;0.10;;;7.60;99.90;;;;;;5073240;28;20122;-83
2022/12/22 08:38:41;;;;;;;0.32;0.32;;;7.70;99.90;;;;;;5059692;28;20508;-83
2022/12/22 08:41:13;;;;;;;0.13;0.10;;;7.70;99.90;;;;;;5059589;28;20080;-82
2022/12/22 08:43:38;;;;;;;0.08;0.05;;;7.80;99.90;;;;;;5076665;28;20071;-83
2022/12/22 08:46:04;;;;;;;0.10;0.10;;;7.90;99.90;;;;;;5076376;28;20457;-83
2022/12/22 08:48:30;;;;;;;3.17;0.55;;;7.90;99.90;;;;;;5042700;28;20143;-83
2022/12/22 08:50:56;;;;;;;0.82;0.82;;;7.90;99.90;;;;;;5076265;28;20118;-82
2022/12/22 08:53:21;;;;;;;2.38;1.38;;;7.90;99.90;;;;;;5092942;28;20078;-82
2022/12/22 08:55:52;;;;;;;1.45;0.43;;;8.00;99.90;;;;;;5060947;28;20040;-82
2022/12/22 08:58:18;;;;;;;0.75;0.75;;;7.90;99.90;;;;;;5063190;28;20040;-82
2022/12/22 09:00:44;;;;;;;1.27;0.45;;;8.00;99.90;;;;;;5096200;28;20109;-82
2022/12/22 09:03:09;;;;;;;0.30;0.30;;;8.00;99.90;;;;;;5095820;28;20054;-82
2022/12/22 09:05:37;;;;;;;0.03;0.03;;;8.00;99.90;;;;;;5079331;28;20554;-82
2022/12/22 09:08:06;;;;;;;0.65;0.17;;;8.00;99.90;;;;;;5079641;28;20044;-82
2022/12/22 09:10:32;;;;;;;0.40;0.40;;;8.00;99.90;;;;;;5079982;28;20135;-82
2022/12/22 09:12:58;;;;;;;0.20;0.10;;;8.10;99.90;;;;;;5079105;28;20139;-82
2022/12/22 09:15:24;;;;;;;0.75;0.50;;;8.10;99.90;;;;;;5096021;28;20044;-82
2022/12/22 09:17:49;;;;;;;0.10;0.10;;;8.10;99.90;;;;;;5079048;28;20083;-82
2022/12/22 09:20:15;;;;;;;0.65;0.00;;;8.10;99.90;;;;;;5095940;28;20108;-82
2022/12/22 09:22:41;;;;;;;0.75;0.75;;;8.10;99.90;;;;;;5095558;28;20108;-81
2022/12/22 09:25:07;;;;;;;2.78;0.30;;;8.10;99.90;;;;;;5095812;28;20493;-81
2022/12/22 09:27:33;;;;;;;0.00;0.00;;;8.10;99.90;;;;;;5045605;28;20460;-82
2022/12/22 09:29:58;;;;;;;2.72;1.15;;;8.10;99.90;;;;;;5078804;28;20055;-82
2022/12/22 09:32:24;;;;;;;0.93;0.10;;;8.10;99.90;;;;;;5078384;28;20040;-82
2022/12/22 09:34:50;;;;;;;0.30;0.30;;;8.10;99.90;;;;;;5095575;28;20048;-82
2022/12/22 09:37:16;;;;;;;5.85;1.48;;;8.10;99.90;;;;;;5061592;28;20071;-82
2022/12/22 09:39:42;;;;;;;2.00;0.95;;;8.00;99.90;;;;;;5095736;28;20055;-82
2022/12/22 09:42:18;;;;;;;0.00;0.00;;;7.90;99.90;;;;;;5062063;28;20040;-82
2022/12/22 09:44:49;;;;;;;2.38;0.47;;;7.90;99.90;;;;;;5095368;28;20135;-82
2022/12/22 09:47:30;;;;;;;1.00;0.47;;;7.90;99.90;;;;;;5094524;28;20044;-82
2022/12/22 09:49:56;;;;;;;0.57;0.57;;;7.80;99.90;;;;;;5078391;28;20052;-82
2022/12/22 09:52:32;;;;;;;0.08;0.00;;;7.90;99.90;;;;;;5078420;28;20044;-81
2022/12/22 09:54:58;;;;;;;0.28;0.28;;;7.90;99.90;;;;;;5078464;28;20044;-82
2022/12/22 09:57:28;;;;;;;0.00;0.00;;;7.80;99.90;;;;;;5078236;28;20123;-82
2022/12/22 09:59:56;;;;;;;0.43;0.43;;;7.90;99.90;;;;;;5095397;28;20044;-83
2022/12/22 10:02:22;;;;;;;0.40;0.10;;;7.80;99.90;;;;;;5078159;28;20044;-83
2022/12/22 10:05:02;;;;;;;2.20;0.10;;;7.80;99.90;;;;;;5095059;28;20051;-84
2022/12/22 10:07:35;;;;;;;0.40;0.40;;;7.80;99.90;;;;;;5078291;28;20088;-82
2022/12/22 10:10:26;;;;;;;0.80;0.65;;;7.80;99.90;;;;;;5095570;28;20040;-83
2022/12/22 10:13:01;;;;;;;0.03;0.00;;;7.90;99.90;;;;;;5077500;28;20487;-83
2022/12/22 10:15:35;;;;;;;0.10;0.10;;;7.90;99.90;;;;;;5077920;28;20091;-82
2022/12/22 10:18:18;;;;;;;0.00;0.00;;;7.90;99.90;;;;;;5094936;28;20052;-82
2022/12/22 10:21:02;;;;;;;0.38;0.00;;;7.90;99.90;;;;;;5077805;28;20048;-82
2022/12/22 10:23:29;;;;;;;0.20;0.20;;;8.00;99.90;;;;;;5077861;28;20044;-82
2022/12/22 10:26:20;;;;;;;0.75;0.68;;;8.10;99.90;;;;;;5077950;28;20083;-82
2022/12/22 10:28:49;;;;;;;1.75;0.05;;;8.20;99.90;;;;;;5093486;28;20088;-82
2022/12/22 10:31:17;;;;;;;0.13;0.13;;;8.20;99.90;;;;;;5094044;28;20040;-83
2022/12/22 10:33:46;;;;;;;0.00;0.00;;;8.10;99.90;;;;;;5094559;28;20476;-82
2022/12/22 10:36:14;;;;;;;0.10;0.10;;;8.10;99.90;;;;;;5077386;28;20052;-82
2022/12/22 10:39:03;;;;;;;0.13;0.13;;;8.20;99.90;;;;;;5094554;28;20040;-82
2022/12/22 10:41:36;;;;;;;0.30;0.30;;;8.30;99.90;;;;;;5077531;28;20047;-82
2022/12/22 10:44:18;;;;;;;0.55;0.52;;;8.40;99.90;;;;;;5094260;28;20131;-82
2022/12/22 10:47:00;;;;;;;0.28;0.20;;;8.50;99.90;;;;;;5077549;28;20109;-82
2022/12/22 10:49:38;;;;;;;0.10;0.10;;;8.60;99.90;;;;;;5094249;28;20055;-82
2022/12/22 10:52:20;;;;;;;0.30;0.20;;;8.80;99.90;;;;;;5094338;28;20048;-82
2022/12/22 10:54:46;;;;;;;0.10;0.10;;;8.80;99.90;;;;;;5094117;28;20048;-82
2022/12/22 10:57:17;;;;;;;0.15;0.15;;;8.70;99.90;;;;;;5076995;28;20630;-82
2022/12/22 10:59:56;;;;;;;0.00;0.00;;;8.50;99.90;;;;;;5094140;28;20048;-82
2022/12/22 11:02:25;;;;;;;1.38;0.38;;;8.40;99.90;;;;;;5094765;28;20047;-82
2022/12/22 11:04:53;;;;;;;0.30;0.30;;;8.50;99.90;;;;;;5077526;28;20083;-82
2022/12/22 11:07:19;;;;;;;0.20;0.20;;;8.40;99.90;;;;;;5093817;28;20052;-82
2022/12/22 11:09:45;;;;;;;0.13;0.13;;;8.50;99.90;;;;;;5077380;28;20060;-81
2022/12/22 11:12:49;;;;;;;0.35;0.35;;;8.30;99.90;;;;;;5093781;28;20105;-82
2022/12/22 11:15:33;;;;;;;0.00;0.00;;;8.30;99.90;;;;;;5093789;28;20043;-82
2022/12/22 11:18:37;;;;;;;0.00;0.00;;;8.30;99.90;;;;;;5093804;28;20407;-82
2022/12/22 11:21:02;;;;;;;0.00;0.00;;;8.50;99.90;;;;;;5076859;28;20476;-82
2022/12/22 11:23:54;;;;;;;0.03;0.03;;;9.00;99.90;;;;;;5093558;28;20083;-82
2022/12/22 11:26:38;;;;;;;0.00;0.00;;;9.50;99.90;;;;;;5076839;28;20055;-82
2022/12/22 11:30:01;;;;;;;0.10;0.10;;;10.20;99.90;;;;;;5076635;28;20051;-83
2022/12/22 11:32:30;;;;;;;0.08;0.00;;;11.00;99.90;;;;;;5021346;28;20094;-82
2022/12/22 11:35:15;;;;;;;0.00;0.00;;;11.80;99.90;;;;;;5093323;28;20051;-82
2022/12/22 11:38:04;;;;;;;0.10;0.10;;;12.00;99.90;;;;;;5093194;28;20496;-84
2022/12/22 11:40:50;;;;;;;0.20;0.20;;;12.50;99.90;;;;;;5093396;28;20403;-82
2022/12/22 11:43:53;;;;;;;0.00;0.00;;;13.00;99.90;;;;;;5093337;28;20048;-82
2022/12/22 11:46:37;;;;;;;0.20;0.20;;;13.40;99.90;;;;;;5093093;28;20048;-82
2022/12/22 11:49:03;;;;;;;0.00;0.00;;;13.60;99.90;;;;;;5076348;28;20044;-82
2022/12/22 11:51:54;;;;;;;0.30;0.30;;;13.70;99.90;;;;;;5076704;28;20113;-82
2022/12/22 11:54:49;;;;;;;0.70;0.17;;;14.00;99.90;;;;;;5075971;28;20047;-82
2022/12/22 11:57:50;;;;;;;0.00;0.00;;;14.20;99.90;;;;;;5076266;28;20047;-82
2022/12/22 12:00:17;;;;;;;1.45;0.40;;;14.10;99.90;;;;;;5038186;28;20059;-82
2022/12/22 12:03:10;;;;;;;0.10;0.10;;;14.10;99.90;;;;;;5092171;28;20126;-82
2022/12/22 12:05:38;;;;;;;0.43;0.43;;;14.10;99.90;;;;;;5093511;28;20200;-83
2022/12/22 12:08:45;;;;;;;0.70;0.20;;;14.20;99.90;;;;;;5092853;28;20067;-82
2022/12/22 12:11:31;;;;;;;0.05;0.05;;;14.10;99.90;;;;;;5061448;28;20460;-83
2022/12/22 12:14:15;;;;;;;0.30;0.30;;;14.20;99.90;;;;;;5092795;28;20605;-82
2022/12/22 12:17:03;;;;;;;0.32;0.32;;;14.30;99.90;;;;;;5076019;28;20044;-82
2022/12/22 12:19:59;;;;;;;2.20;1.13;;;14.20;99.90;;;;;;5093120;28;20044;-82
2022/12/22 12:22:43;;;;;;;;;;;14.10;99.90;;;;;;5076205;28;20512;-82
2022/12/22 12:25:18;;;;;;;0.00;0.00;;;14.00;99.90;;;;;;5092762;28;19949;-82
2022/12/22 12:28:05;;;;;;;0.70;0.70;;;13.90;99.90;;;;;;5092968;28;20052;-82
2022/12/22 12:30:44;;;;;;;0.73;0.60;;;13.80;99.90;;;;;;5093130;28;20055;-82
2022/12/22 12:33:19;;;;;;;0.20;0.00;;;13.60;99.90;;;;;;5075501;28;20047;-81
2022/12/22 12:35:51;;;;;;;0.28;0.10;;;13.40;99.90;;;;;;5092409;28;20052;-82
2022/12/22 12:38:39;;;;;;;0.00;0.00;;;13.30;99.90;;;;;;5092925;28;20101;-82
2022/12/22 12:41:36;;;;;;;0.35;0.35;;;13.20;99.90;;;;;;5075954;28;20044;-82
2022/12/22 12:44:03;;;;;;;0.05;0.05;;;12.90;99.90;;;;;;5092765;28;20044;-82
2022/12/22 12:46:51;;;;;;;0.10;0.10;;;12.70;99.90;;;;;;5075667;28;20177;-82
2022/12/22 12:49:35;;;;;;;0.13;0.13;;;12.40;99.90;;;;;;5075642;28;20044;-82
2022/12/22 12:52:08;;;;;;;0.10;0.10;;;12.20;99.90;;;;;;5075608;28;20139;-82
2022/12/22 12:54:39;;;;;;;2.35;0.45;;;12.00;99.90;;;;;;5075542;28;20143;-82
2022/12/22 12:57:42;;;;;;;0.03;0.03;;;11.80;99.90;;;;;;5075863;28;20476;-82
2022/12/22 13:00:31;;;;;;;0.10;0.10;;;11.80;99.90;;;;;;5092444;28;20109;-82
2022/12/22 13:03:29;;;;;;;0.10;0.03;;;11.60;99.90;;;;;;5091661;28;20044;-83
2022/12/22 13:06:00;;;;;;;0.10;0.10;;;11.50;99.90;;;;;;5087306;28;20064;-82
2022/12/22 13:08:29;;;;;;;0.10;0.10;;;11.50;99.90;;;;;;5075869;28;20048;-82
2022/12/22 13:10:55;;;;;;;1.77;0.65;;;11.40;99.90;;;;;;5075546;28;20044;-82
2022/12/22 13:13:20;;;;;;;0.40;0.15;;;11.30;99.90;;;;;;5092698;28;20369;-82
2022/12/22 13:16:07;;;;;;;0.30;0.30;;;11.20;99.90;;;;;;5092249;28;20480;-82
2022/12/22 13:18:33;;;;;;;1.13;1.00;;;11.10;99.90;;;;;;5074551;28;20048;-82
2022/12/22 13:21:05;;;;;;;0.13;0.13;;;11.00;99.90;;;;;;5075439;28;20048;-82
2022/12/22 13:23:37;;;;;;;0.50;0.00;;;10.90;99.90;;;;;;5094927;28;20511;-82
2022/12/22 13:26:14;;;;;;;0.10;0.10;;;10.90;99.90;;;;;;5095716;28;20143;-82
2022/12/22 13:28:43;;;;;;;0.32;0.25;;;10.80;99.90;;;;;;5078794;28;20040;-82
2022/12/22 13:31:20;;;;;;;0.90;0.05;;;10.80;99.90;;;;;;5095871;28;20047;-82
2022/12/22 13:33:55;;;;;;;0.20;0.20;;;10.80;99.90;;;;;;5078782;28;20454;-84
2022/12/22 13:36:25;;;;;;;2.67;0.30;;;10.80;99.90;;;;;;5078847;28;20060;-86
2022/12/22 13:39:10;;;;;;;0.10;0.10;;;10.70;99.90;;;;;;5079186;28;20503;-86
2022/12/22 13:41:40;;;;;;;0.20;0.20;;;10.60;99.90;;;;;;5079067;28;20484;-83
2022/12/22 13:44:10;;;;;;;0.70;0.32;;;10.60;99.90;;;;;;5078628;28;20056;-83
2022/12/22 13:46:37;;;;;;;0.00;0.00;;;10.60;99.90;;;;;;5091549;28;20492;-83
2022/12/22 13:49:07;;;;;;;0.13;0.13;;;10.60;99.90;;;;;;5094396;28;20537;-83
2022/12/22 13:51:36;;;;;;;0.17;0.17;;;10.50;99.90;;;;;;5079135;28;20052;-83
2022/12/22 13:54:15;;;;;;;0.57;0.57;;;10.40;99.90;;;;;;5095350;28;20098;-83
2022/12/22 13:56:51;;;;;;;0.10;0.10;;;10.30;99.90;;;;;;5095329;28;20036;-83
2022/12/22 13:59:42;;;;;;;0.00;0.00;;;10.30;99.90;;;;;;5095673;28;20052;-83
2022/12/22 14:02:07;;;;;;;0.00;0.00;;;10.20;99.90;;;;;;5080516;28;20048;-82
2022/12/22 14:04:37;;;;;;;0.28;0.13;;;10.20;99.90;;;;;;5095154;28;20093;-82
2022/12/22 14:07:15;;;;;;;0.25;0.10;;;10.10;99.90;;;;;;5079111;28;20070;-83
2022/12/22 14:09:45;;;;;;;0.10;0.10;;;10.10;99.90;;;;;;5095127;28;20408;-83
2022/12/22 14:12:30;;;;;;;0.00;0.00;;;10.00;99.90;;;;;;5094666;28;20036;-84
2022/12/22 14:14:58;;;;;;;0.00;0.00;;;9.90;99.90;;;;;;5078343;28;20563;-83
2022/12/22 14:17:35;;;;;;;0.10;0.10;;;9.80;99.90;;;;;;5077964;28;20044;-83
2022/12/22 14:20:16;;;;;;;0.00;0.00;;;9.70;99.90;;;;;;5076433;28;20044;-85
2022/12/22 14:22:48;;;;;;;0.00;0.00;;;9.70;99.90;;;;;;5091370;28;20036;-83
2022/12/22 14:25:21;;;;;;;0.00;0.00;;;9.60;99.90;;;;;;5074141;28;20074;-83
2022/12/22 14:27:51;;;;;;;0.20;0.00;;;9.60;99.90;;;;;;5074570;28;20052;-83
2022/12/22 14:30:40;;;;;;;0.00;0.00;;;9.50;99.90;;;;;;5074418;28;20049;-84
2022/12/22 14:33:28;;;;;;;0.10;0.10;;;9.50;99.90;;;;;;5057409;28;20052;-83
2022/12/22 14:36:14;;;;;;;0.00;0.00;;;9.40;99.90;;;;;;5054196;28;20082;-84
2022/12/22 14:38:46;;;;;;;0.10;0.10;;;9.40;99.90;;;;;;5075394;28;20044;-84
2022/12/22 14:41:42;;;;;;;0.00;0.00;;;9.40;99.90;;;;;;5094233;28;20048;-84
2022/12/22 14:44:33;;;;;;;0.55;0.00;;;9.30;99.90;;;;;;5092395;28;20109;-84
2022/12/22 14:47:13;;;;;;;0.08;0.08;;;9.30;99.90;;;;;;5077025;28;20052;-83
2022/12/22 14:49:52;;;;;;;0.08;0.00;;;9.20;99.90;;;;;;5092670;28;20055;-83
2022/12/22 14:52:28;;;;;;;0.00;0.00;;;9.20;99.90;;;;;;5070878;28;20127;-83
2022/12/22 14:54:54;;;;;;;0.10;0.10;;;9.10;99.90;;;;;;5057439;28;20048;-84
2022/12/22 14:57:38;;;;;;;0.00;0.00;;;9.10;99.90;;;;;;5057083;28;20554;-83
2022/12/22 15:00:23;;;;;;;0.20;0.20;;;9.10;99.90;;;;;;5057659;28;20135;-84
2022/12/22 15:02:55;;;;;;;0.00;0.00;;;9.00;99.90;;;;;;5060725;28;20040;-84
2022/12/22 15:05:31;;;;;;;0.10;0.10;;;9.00;99.90;;;;;;5073505;28;20397;-84
2022/12/22 15:07:58;;;;;;;0.50;0.15;;;9.00;99.90;;;;;;5090017;28;20133;-84
2022/12/22 15:10:26;;;;;;;0.10;0.10;;;8.90;99.90;;;;;;5073939;28;20503;-83
2022/12/22 15:12:57;;;;;;;0.10;0.10;;;8.90;99.90;;;;;;5073980;28;20044;-84
2022/12/22 15:15:23;;;;;;;0.00;0.00;;;8.80;99.90;;;;;;5057477;28;20052;-84
2022/12/22 15:17:53;;;;;;;0.00;0.00;;;8.80;99.90;;;;;;5057255;28;20044;-85
2022/12/22 15:20:22;;;;;;;0.00;0.00;;;8.70;99.90;;;;;;5079036;28;20480;-84
2022/12/22 15:22:48;;;;;;;0.00;0.00;;;8.80;99.90;;;;;;5093534;28;20050;-84
2022/12/22 15:25:21;;;;;;;0.00;0.00;;;8.80;99.90;;;;;;5076564;28;20051;-84
2022/12/22 15:27:52;;;;;;;0.80;0.00;;;8.80;99.90;;;;;;5096292;28;20448;-84
2022/12/22 15:30:20;;;;;;;0.00;0.00;;;8.80;99.90;;;;;;5063491;28;20118;-84
2022/12/22 15:32:46;;;;;;;0.25;0.25;;;8.80;99.90;;;;;;5063389;28;20069;-83
2022/12/22 15:35:23;;;;;;;0.00;0.00;;;8.80;99.90;;;;;;5066516;28;20139;-83
2022/12/22 15:37:48;;;;;;;0.00;0.00;;;8.80;99.90;;;;;;5074024;28;20360;-84
2022/12/22 15:40:17;;;;;;;0.10;0.00;;;8.70;99.90;;;;;;5050894;28;20096;-85
2022/12/22 15:42:43;;;;;;;0.00;0.00;;;8.80;99.90;;;;;;5087124;28;20097;-84
2022/12/22 15:45:09;;;;;;;0.00;0.00;;;8.80;99.90;;;;;;5076062;28;20157;-85
2022/12/22 15:47:35;;;;;;;0.00;0.00;;;8.80;99.90;;;;;;5090722;28;20040;-84
2022/12/22 15:50:01;;;;;;;0.63;0.00;;;8.80;99.90;;;;;;5060175;28;20051;-84
2022/12/22 15:52:28;;;;;;;0.00;0.00;;;8.80;99.90;;;;;;5066508;28;20307;-84
2022/12/22 15:54:54;;;;;;;0.00;0.00;;;8.80;99.90;;;;;;5074052;28;20052;-84
2022/12/22 15:57:20;;;;;;;0.00;0.00;;;8.80;99.90;;;;;;5074535;28;20040;-84
2022/12/22 15:59:46;;;;;;;1.55;0.10;;;8.70;99.90;;;;;;5054037;28;20044;-83
2022/12/22 16:02:12;;;;;;;0.00;0.00;;;8.60;99.90;;;;;;5071889;28;20045;-84
2022/12/22 16:04:38;;;;;;;0.08;0.08;;;8.70;99.90;;;;;;5055919;28;20083;-84
2022/12/22 16:07:04;;;;;;;1.50;0.15;;;8.70;99.90;;;;;;5073273;28;20091;-84
2022/12/22 16:09:38;;;;;;;2.55;0.38;;;8.60;99.90;;;;;;5072858;28;20079;-84
2022/12/22 16:12:22;;;;;;;1.10;0.00;;;8.60;99.90;;;;;;5056061;28;20044;-83
2022/12/22 16:14:51;;;;;;;0.43;0.08;;;8.60;99.90;;;;;;5056233;28;20090;-84
2022/12/22 16:17:23;;;;;;;0.00;0.00;;;8.60;99.90;;;;;;5073662;28;20059;-83
2022/12/22 16:19:49;;;;;;;0.00;0.00;;;8.50;99.90;;;;;;5056416;28;20492;-84
2022/12/22 16:22:18;;;;;;;0.20;0.20;;;8.50;99.90;;;;;;5073001;28;20076;-83
2022/12/22 16:24:47;;;;;;;0.03;0.03;;;8.50;99.90;;;;;;5056005;28;20499;-83
2022/12/22 16:27:14;;;;;;;0.00;0.00;;;8.50;99.90;;;;;;5056072;28;20044;-84
2022/12/22 16:29:43;;;;;;;0.08;0.08;;;8.50;99.90;;;;;;5098181;28;20456;-84
2022/12/22 16:32:30;;;;;;;0.00;0.00;;;8.50;99.90;;;;;;5095908;28;20150;-85
2022/12/22 16:35:17;;;;;;;0.00;0.00;;;8.50;99.90;;;;;;5096724;28;20062;-83
2022/12/22 16:37:43;;;;;;;1.20;1.10;;;8.50;99.90;;;;;;5112605;28;20142;-84
2022/12/22 16:40:10;;;;;;;0.47;0.43;;;8.50;99.90;;;;;;5079747;28;20090;-84
2022/12/22 16:42:38;;;;;;;0.88;0.30;;;8.50;99.90;;;;;;5113918;28;20074;-84
2022/12/22 16:45:05;;;;;;;5.72;0.10;;;8.40;99.90;;;;;;5096110;28;20082;-84
2022/12/22 16:47:34;;;;;;;6.13;0.38;;;8.50;99.90;;;;;;5096158;28;20387;-83
2022/12/22 16:50:00;;;;;;;0.00;0.00;;;8.40;99.90;;;;;;5112799;28;20040;-84
2022/12/22 16:52:39;;;;;;;0.65;0.43;;;8.40;99.90;;;;;;5095034;28;20044;-85
2022/12/22 16:55:16;;;;;;;0.00;0.00;;;8.50;99.90;;;;;;5085752;28;20055;-84
2022/12/22 16:57:43;;;;;;;0.00;0.00;;;8.40;99.90;;;;;;5073852;28;20048;-86